Latest Weather Observations for Barimunya

IDW60801

Issued at 7:35 pm WST Monday 20 October 2014 (issued every 30 minutes, with the page automatically refreshed every 10 minutes)

About weather observations | Map of weather stations | Latest weather observations for WA | Other Formats
Station Details ID: 505053 Name: BARIMUNYA Lat: -22.67 Lon: 119.16 Height: 629.17 m
Data from the previous 72 hours. | See also: Recent months for locations in Western Australia
Date/Time
WST
Temp
°C
App
Temp
°C
Dew
Point
Rel
Hum
%
Delta-T
°C
Wind Press
QNH
hPa
Press
MSL
hPa
Rain
since 9 am
mm
Dir
 
Spd
km/h
Gust
km/h
Spd
kts
Gust
kts
20/07:30pm 29.0 24.0 -4.4 11 15.1 NNW 13 17 7 9 1016.9 1012.8 0.0
20/07:00pm 29.5 24.4 -5.3 10 15.6 NNW 13 17 7 9 1016.5 1012.4 0.0
20/06:30pm 30.4 25.0 -4.6 10 16.0 NNW 15 20 8 11 1016.0 1011.8 0.0
20/06:00pm 31.6 26.9 -5.1 9 16.7 NW 11 19 6 10 1015.7 1011.5 0.0
20/05:30pm 33.0 27.3 -4.0 9 17.4 NNW 17 26 9 14 1015.3 1011.2 0.0
20/05:00pm 33.2 27.3 -5.5 8 17.8 NW 17 22 9 12 1015.0 1010.9 0.0
20/04:30pm 33.8 27.4 -5.0 8 18.0 NNW 20 32 11 17 1014.8 1010.7 0.0
20/04:00pm 33.9 26.4 -4.9 8 18.1 NNW 26 39 14 21 1014.7 1010.6 0.0
20/03:30pm 33.5 26.5 -3.7 9 17.6 NNW 24 35 13 19 1014.7 1010.6 0.0
20/03:00pm 34.4 27.3 -4.6 8 18.3 NNW 24 35 13 19 1014.8 1010.7 0.0
20/02:30pm 33.5 26.6 -2.3 10 17.4 NW 24 37 13 20 1014.8 1010.7 0.0
20/02:00pm 34.0 27.2 -1.9 10 17.6 NNW 24 41 13 22 1015.2 1011.1 0.0
20/01:40pm 34.1 26.5 -1.8 10 17.6 NW 28 46 15 25 1015.7 1011.5 0.0
20/01:30pm 33.0 25.0 -2.6 10 17.1 WNW 30 43 16 23 1015.7 1011.5 0.0
20/01:20pm 33.7 26.1 -2.1 10 17.4 NNW 28 46 15 25 1015.7 1011.5 0.0
20/01:00pm 32.6 26.0 -0.5 12 16.4 N 24 37 13 20 1016.1 1012.0 0.0
20/12:30pm 32.7 25.0 -0.4 12 16.5 NW 30 44 16 24 1016.7 1012.6 0.0
20/12:02pm 31.9 24.6 0.1 13 15.9 NNW 28 46 15 25 1017.0 1012.9 0.0
20/12:00pm 32.6 26.3 1.7 14 15.9 NNW 24 37 13 20 1017.2 1013.1 0.0
20/11:30am 30.5 25.7 2.7 17 14.4 NNW 17 35 9 19 1017.7 1013.6 0.0
20/11:00am 29.6 25.5 2.0 17 14.0 NNW 13 20 7 11 1018.1 1014.0 0.0
20/10:30am 29.5 25.7 1.9 17 14.0 WNW 11 17 6 9 1018.4 1014.3 0.0
20/10:00am 28.2 25.3 2.4 19 13.1 N 7 20 4 11 1018.7 1014.6 0.0
20/09:30am 26.8 23.5 2.7 21 12.2 E 9 15 5 8 1019.2 1015.1 0.0
20/09:00am 25.3 22.0 2.7 23 11.3 E 9 13 5 7 1019.2 1015.1 0.0
20/08:30am 24.4 21.1 2.5 24 10.8 SSE 9 15 5 8 1019.3 1015.2 0.0
20/08:00am 23.7 19.6 2.5 25 10.4 SSE 13 17 7 9 1019.2 1015.1 0.0
20/07:30am 22.9 19.4 3.4 28 9.7 S 11 15 6 8 1018.8 1014.7 0.0
20/07:00am 22.0 18.8 3.2 29 9.3 S 9 13 5 7 1018.5 1014.4 0.0
20/06:30am 19.3 18.0 4.3 37 7.4 CALM 0 0 0 0 1018.3 1014.2 0.0
20/06:00am 17.2 16.1 4.9 44 6.1 WSW 0 0 0 0 1018.0 1013.9 0.0
20/05:30am 17.7 15.1 4.3 41 6.6 WSW 7 7 4 4 1017.6 1013.5 0.0
20/05:00am 17.5 16.3 4.5 42 6.4 CALM 0 0 0 0 1017.4 1013.2 0.0
20/04:30am 18.4 16.4 4.2 39 7.0 WSW 4 7 2 4 1016.8 1012.7 0.0
20/04:00am 18.8 16.2 4.2 38 7.2 W 7 9 4 5 1016.7 1012.6 0.0
20/03:30am 18.8 16.3 3.8 37 7.3 WSW 6 9 3 5 1016.6 1012.5 0.0
20/03:00am 19.0 16.4 4.0 37 7.4 W 7 9 4 5 1016.3 1012.2 0.0
20/02:30am 20.0 17.2 3.3 33 8.1 W 7 11 4 6 1016.3 1012.2 0.0
20/02:00am 20.0 17.9 3.7 34 8.0 W 4 9 2 5 1016.3 1012.2 0.0
20/01:30am 20.0 18.6 3.3 33 8.1 CALM 0 2 0 1 1016.3 1012.2 0.0
20/01:00am 20.8 16.9 3.5 32 8.5 W 13 15 7 8 1016.5 1012.4 0.0
20/12:30am 21.0 17.6 4.1 33 8.4 WNW 11 15 6 8 1016.5 1012.4 0.0
20/12:00am 20.8 19.0 5.2 36 7.9 W 4 11 2 6 1016.5 1012.4 0.0
 
Date/Time
WST
Temp
°C
App
Temp
°C
Dew
Point
Rel
Hum
%
Delta-T
°C
Wind Press
QNH
hPa
Press
MSL
hPa
Rain
since 9 am
mm
Dir
 
Spd
km/h
Gust
km/h
Spd
kts
Gust
kts
19/11:30pm 21.2 20.1 5.1 35 8.2 CALM 0 6 0 3 1016.7 1012.6 0.0
19/11:00pm 21.9 19.1 5.3 34 8.5 W 9 11 5 6 1016.7 1012.6 0.0
19/10:30pm 23.0 20.3 5.4 32 9.1 W 9 11 5 6 1016.7 1012.6 0.0
19/10:00pm 24.3 21.2 5.6 30 9.8 W 11 13 6 7 1016.6 1012.5 0.0
19/09:30pm 24.9 21.8 5.7 29 10.1 WNW 11 15 6 8 1016.6 1012.5 0.0
19/09:00pm 26.6 22.6 5.0 25 11.3 NW 15 20 8 11 1016.2 1012.1 0.0
19/08:30pm 27.1 22.8 5.4 25 11.5 NW 17 22 9 12 1015.9 1011.7 0.0
19/08:00pm 27.7 22.8 5.3 24 11.9 NNW 20 33 11 18 1015.4 1011.3 0.0
19/07:30pm 28.2 22.7 5.7 24 12.1 NNW 24 35 13 19 1014.9 1010.8 0.0
19/07:00pm 28.4 23.7 5.9 24 12.1 NNW 20 33 11 18 1014.5 1010.3 0.0
19/06:30pm 28.9 23.4 5.7 23 12.5 NNW 24 39 13 21 1014.1 1009.9 0.0
19/06:00pm 29.5 24.1 6.2 23 12.7 NNW 24 32 13 17 1013.8 1009.7 0.0
19/05:30pm 29.9 24.0 5.9 22 13.0 NW 26 35 14 19 1013.3 1009.2 0.0
19/05:00pm 30.9 26.1 7.4 23 13.2 NNW 22 30 12 16 1013.0 1008.8 0.0
19/04:30pm 30.5 23.7 7.0 23 13.0 NNW 32 46 17 25 1012.9 1008.7 0.0
19/04:06pm 31.3 25.3 7.1 22 13.5 NNW 28 54 15 29 1012.7 1008.5 0.0
19/04:00pm 31.1 25.8 6.9 22 13.5 NNW 24 35 13 19 1012.7 1008.5 0.0
19/03:36pm 31.8 25.4 6.8 21 13.9 NW 30 48 16 26 1012.8 1008.6 0.0
19/03:30pm 30.9 24.4 6.7 22 13.4 NW 30 46 16 25 1012.9 1008.7 0.0
19/03:28pm 31.0 24.9 6.8 22 13.4 NW 28 46 15 25 1012.8 1008.6 0.0
19/03:00pm 32.1 26.2 7.7 22 13.8 NNW 28 37 15 20 1012.9 1008.7 0.0
19/02:42pm 31.4 25.6 7.8 23 13.3 NNW 28 46 15 25 1013.0 1008.8 0.0
19/02:30pm 31.5 25.7 7.9 23 13.4 NNW 28 44 15 24 1013.0 1008.8 0.0
19/02:00pm 31.0 23.8 7.5 23 13.2 NNW 35 54 19 29 1013.3 1009.2 0.0
19/01:30pm 31.1 24.7 6.9 22 13.4 NNW 30 50 16 27 1013.8 1009.7 0.0
19/01:06pm 30.6 24.9 8.3 25 12.6 NW 28 50 15 27 1014.0 1009.8 0.0
19/01:00pm 30.4 24.3 8.2 25 12.6 NW 30 44 16 24 1014.2 1010.0 0.0
19/12:30pm 31.0 26.3 9.3 26 12.5 NW 24 37 13 20 1014.6 1010.4 0.0
19/12:00pm 29.7 24.6 9.3 28 11.7 NW 26 41 14 22 1014.9 1010.8 0.0
19/11:30am 29.4 25.0 9.0 28 11.6 N 22 37 12 20 1015.5 1011.4 0.0
19/11:00am 28.0 25.5 9.8 32 10.4 N 13 24 7 13 1016.0 1011.8 0.0
19/10:30am 27.0 24.4 9.4 33 10.0 W 13 26 7 14 1016.3 1012.2 0.0
19/10:00am 25.6 23.5 9.8 37 9.0 NW 11 20 6 11 1016.6 1012.5 0.0
19/09:30am 25.1 22.1 9.4 37 8.8 W 15 22 8 12 1016.8 1012.7 0.0
19/09:00am 24.5 21.4 10.4 41 8.0 WSW 17 22 9 12 1016.7 1012.6 0.0
19/08:30am 23.7 21.7 10.0 42 7.7 WSW 11 20 6 11 1016.7 1012.6 0.0
19/08:00am 22.9 20.2 10.3 45 7.1 WSW 15 20 8 11 1016.6 1012.5 0.0
19/07:30am 22.9 20.3 10.7 46 6.9 W 15 20 8 11 1016.4 1012.3 0.0
19/07:00am 22.0 19.8 10.8 49 6.3 W 13 17 7 9 1016.1 1012.0 0.0
19/06:30am 21.0 19.4 11.6 55 5.4 W 11 17 6 9 1015.8 1011.6 0.0
19/06:00am 19.4 19.1 12.7 65 3.9 WNW 6 9 3 5 1015.3 1011.2 0.0
19/05:30am 18.6 19.3 12.1 66 3.7 CALM 0 0 0 0 1015.0 1010.9 0.0
19/05:00am 19.5 20.3 12.5 64 4.0 CALM 0 0 0 0 1014.6 1010.4 0.0
19/04:30am 19.6 19.6 12.4 63 4.2 NW 4 6 2 3 1014.3 1010.1 0.0
19/04:00am 20.5 19.6 12.5 60 4.6 NW 9 15 5 8 1014.2 1010.0 0.0
19/03:30am 21.0 19.4 12.9 60 4.7 N 13 19 7 10 1013.7 1009.6 0.0
19/03:00am 21.2 19.7 13.1 60 4.8 N 13 17 7 9 1013.7 1009.6 0.0
19/02:30am 21.6 19.8 13.2 59 5.0 N 15 19 8 10 1013.6 1009.5 0.0
19/02:00am 21.5 19.3 13.4 60 4.8 N 17 20 9 11 1013.6 1009.5 0.0
19/01:30am 21.6 19.8 13.2 59 5.0 N 15 19 8 10 1013.8 1009.7 0.0
19/01:00am 22.3 20.1 13.4 57 5.3 N 17 22 9 12 1014.1 1009.9 0.0
19/12:30am 22.9 20.8 12.5 52 6.1 N 15 19 8 10 1014.4 1010.2 0.0
19/12:00am 23.9 21.5 12.5 49 6.7 N 17 24 9 13 1014.6 1010.4 0.0
 
Date/Time
WST
Temp
°C
App
Temp
°C
Dew
Point
Rel
Hum
%
Delta-T
°C
Wind Press
QNH
hPa
Press
MSL
hPa
Rain
since 9 am
mm
Dir
 
Spd
km/h
Gust
km/h
Spd
kts
Gust
kts
18/11:30pm 24.7 22.3 12.6 47 7.2 NNW 17 24 9 13 1014.8 1010.7 0.0
18/11:00pm 25.4 22.6 12.6 45 7.6 NNW 19 32 10 17 1015.1 1011.0 0.0
18/10:30pm 25.9 22.9 12.4 43 8.0 NNW 20 32 11 17 1015.1 1011.0 0.0
18/10:00pm 26.3 23.2 11.6 40 8.6 NNW 19 32 10 17 1015.1 1011.0 0.0
18/09:30pm 26.9 23.7 11.4 38 9.1 NNW 19 32 10 17 1015.1 1011.0 0.0
18/09:00pm 27.5 23.2 10.7 35 9.8 NNW 24 37 13 20 1014.8 1010.7 0.0
18/08:30pm 28.1 23.9 9.9 32 10.5 NNW 22 32 12 17 1014.5 1010.3 0.0
18/08:00pm 28.6 23.5 7.8 27 11.6 NNW 24 43 13 23 1014.1 1009.9 0.0
18/07:30pm 29.0 24.4 6.4 24 12.3 NNW 20 33 11 18 1013.8 1009.7 0.0
18/07:00pm 29.5 25.0 6.8 24 12.5 NNW 20 30 11 16 1013.4 1009.3 0.0
18/06:30pm 29.7 25.2 7.0 24 12.5 NNW 20 28 11 15 1013.1 1008.9 0.0
18/06:00pm 30.3 24.8 7.5 24 12.8 NNW 26 39 14 21 1012.6 1008.4 0.0
18/05:30pm 30.8 24.7 6.6 22 13.4 NNW 28 43 15 23 1012.5 1008.3 0.0
18/05:00pm 31.3 24.9 7.1 22 13.5 NNW 30 44 16 24 1012.4 1008.2 0.0
18/04:40pm 31.3 25.2 6.4 21 13.7 NNW 28 48 15 26 1012.3 1008.1 0.0
18/04:30pm 31.9 25.9 6.9 21 13.9 NNW 28 39 15 21 1012.1 1008.0 0.0
18/04:00pm 31.5 24.6 6.5 21 13.8 N 32 50 17 27 1011.9 1007.8 0.0
18/03:30pm 32.2 26.4 7.8 22 13.8 NNW 28 46 15 25 1011.9 1007.8 0.0
18/03:24pm 31.6 25.8 7.9 23 13.4 NNW 28 46 15 25 1012.0 1007.9 0.0
18/03:00pm 31.5 25.8 8.5 24 13.1 NNW 28 43 15 23 1012.3 1008.1 0.0
18/02:30pm 32.5 26.3 8.0 22 13.9 N 30 48 16 26 1012.5 1008.3 0.0
18/02:29pm 32.4 26.6 8.0 22 13.9 N 28 48 15 26 1012.5 1008.3 0.0
18/02:00pm 31.8 27.3 8.7 24 13.3 NNW 22 35 12 19 1012.7 1008.5 0.0
18/01:30pm 32.2 28.6 9.7 25 13.1 N 19 26 10 14 1013.1 1008.9 0.0
18/01:00pm 31.5 29.3 10.8 28 12.3 N 13 20 7 11 1013.6 1009.5 0.0
18/12:30pm 31.3 27.9 10.6 28 12.2 NNW 19 28 10 15 1014.3 1010.1 0.0
18/12:00pm 30.9 28.1 11.3 30 11.7 NE 17 28 9 15 1014.9 1010.8 0.0
18/11:30am 30.0 26.2 11.0 31 11.2 N 22 39 12 21 1015.7 1011.5 0.0
18/11:00am 28.9 26.8 12.3 36 9.9 N 15 24 8 13 1016.0 1011.8 0.0
18/10:30am 28.6 26.6 11.6 34 10.1 NNE 13 24 7 13 1016.5 1012.4 0.0
18/10:00am 27.7 25.0 11.7 37 9.4 NE 17 22 9 12 1016.7 1012.6 0.0
18/09:30am 27.3 25.0 11.7 37 9.2 NNE 15 22 8 12 1017.0 1012.9 0.0
18/09:00am 27.5 25.5 11.5 37 9.4 NNE 13 19 7 10 1017.1 1013.0 1.0
18/08:30am 26.1 23.7 11.4 39 8.6 N 15 20 8 11 1017.0 1012.9 1.0
18/08:00am 25.2 24.0 12.8 46 7.4 N 11 15 6 8 1017.1 1013.0 0.8
18/07:30am 22.0 24.1 16.3 70 3.5 CALM 0 0 0 0 1016.7 1012.6 0.8
18/07:00am 20.5 22.8 16.7 79 2.4 CALM 0 0 0 0 1016.6 1012.5 0.8
18/06:30am 19.1 21.6 17.2 89 1.2 CALM 0 0 0 0 1016.5 1012.4 0.8
18/06:00am 18.1 19.2 16.6 91 0.9 ESE 6 7 3 4 1016.1 1012.0 0.8
18/05:30am 17.6 19.8 16.5 93 0.7 CALM 0 0 0 0 1015.7 1011.5 0.8
18/05:00am 17.5 19.6 16.2 92 0.8 CALM 0 0 0 0 1015.4 1011.3 0.8
18/04:30am 17.8 19.9 16.3 91 0.9 CALM 0 0 0 0 1015.1 1011.0 0.8
18/04:00am 17.8 20.0 16.5 92 0.8 CALM 0 0 0 0 1015.0 1010.9 0.8
18/03:30am 17.9 20.1 16.6 92 0.8 CALM 0 0 0 0 1014.9 1010.8 0.8
18/03:00am 18.0 20.3 16.7 92 0.8 CALM 0 0 0 0 1014.9 1010.8 0.8
18/02:30am 18.0 20.2 16.5 91 0.9 CALM 0 0 0 0 1015.0 1010.9 0.8
18/02:00am 18.4 19.9 16.7 90 1.0 ESE 4 6 2 3 1014.9 1010.8 0.8
18/01:30am 18.5 20.8 16.7 89 1.1 CALM 0 0 0 0 1014.9 1010.8 0.8
18/01:00am 18.7 20.9 16.5 87 1.4 CALM 0 0 0 0 1015.3 1011.2 0.8
18/12:30am 19.3 21.4 16.3 83 1.8 CALM 0 4 0 2 1015.7 1011.5 0.8
18/12:00am 19.5 21.6 16.3 82 2.0 CALM 0 0 0 0 1015.8 1011.6 0.8
 
Date/Time
WST
Temp
°C
App
Temp
°C
Dew
Point
Rel
Hum
%
Delta-T
°C
Wind Press
QNH
hPa
Press
MSL
hPa
Rain
since 9 am
mm
Dir
 
Spd
km/h
Gust
km/h
Spd
kts
Gust
kts
17/11:30pm 19.9 20.6 15.7 77 2.6 ESE 6 9 3 5 1016.1 1012.0 0.8
17/11:00pm 20.5 21.9 15.5 73 3.0 ESE 2 6 1 3 1016.9 1012.8 0.8
17/10:30pm 20.4 21.7 16.2 77 2.6 E 4 9 2 5 1017.4 1013.2 0.8
17/10:00pm 20.3 21.7 16.5 79 2.4 E 4 7 2 4 1017.6 1013.5 0.8
17/09:30pm 20.7 20.6 16.1 75 2.8 SE 11 15 6 8 1017.7 1013.6 0.8
17/09:00pm 21.0 19.8 16.2 74 3.0 ESE 17 20 9 11 1017.8 1013.7 0.8
17/08:30pm 20.9 18.8 17.1 79 2.4 SSE 24 33 13 18 1017.1 1013.0 0.8
17/08:00pm 22.1 19.7 16.4 70 3.5 S 24 43 13 23 1016.9 1012.8 0.8

Other Formats:

Comma delimited format used in spreadsheet applications
http://www.bom.gov.au/fwo/IDW60801/IDW60801.99313.axf

JavaScript Object Notation format (JSON) in row-major order
http://www.bom.gov.au/fwo/IDW60801/IDW60801.99313.json